sensor_id;sensor_type;location;lat;lon;timestamp;P1;durP1;ratioP1;P2;durP2;ratioP2
17949;SDS011;9100;48.700;9.316;2023-05-02T00:00:33;4.6;;;4.1;;
17949;SDS011;9100;48.700;9.316;2023-05-02T00:01:33;4.6;;;4.1;;
17949;SDS011;9100;48.700;9.316;2023-05-02T00:02:33;4.6;;;4.1;;
17949;SDS011;9100;48.700;9.316;2023-05-02T00:03:33;4.6;;;4.1;;
17949;SDS011;9100;48.700;9.316;2023-05-02T00:04:33;4.6;;;4.1;;
17949;SDS011;9100;48.700;9.316;2023-05-02T00:04:46;5.3;;;4.8;;
17949;SDS011;9100;48.700;9.316;2023-05-02T00:05:33;5.3;;;4.8;;
17949;SDS011;9100;48.700;9.316;2023-05-02T00:06:33;5.3;;;4.8;;
17949;SDS011;9100;48.700;9.316;2023-05-02T00:07:33;5.3;;;4.8;;
17949;SDS011;9100;48.700;9.316;2023-05-02T00:08:33;5.3;;;4.8;;
17949;SDS011;9100;48.700;9.316;2023-05-02T00:09:33;5.3;;;4.8;;
17949;SDS011;9100;48.700;9.316;2023-05-02T00:09:46;4;;;3.7;;
17949;SDS011;9100;48.700;9.316;2023-05-02T00:10:33;4;;;3.7;;
17949;SDS011;9100;48.700;9.316;2023-05-02T00:11:33;4;;;3.7;;
17949;SDS011;9100;48.700;9.316;2023-05-02T00:12:33;4;;;3.7;;
17949;SDS011;9100;48.700;9.316;2023-05-02T00:13:33;4;;;3.7;;
17949;SDS011;9100;48.700;9.316;2023-05-02T00:14:33;4;;;3.7;;
17949;SDS011;9100;48.700;9.316;2023-05-02T00:14:46;5.3;;;4.9;;
17949;SDS011;9100;48.700;9.316;2023-05-02T00:15:33;5.3;;;4.9;;
17949;SDS011;9100;48.700;9.316;2023-05-02T00:16:33;5.3;;;4.9;;
17949;SDS011;9100;48.700;9.316;2023-05-02T00:17:33;5.3;;;4.9;;
17949;SDS011;9100;48.700;9.316;2023-05-02T00:18:33;5.3;;;4.9;;
17949;SDS011;9100;48.700;9.316;2023-05-02T00:19:36;5.3;;;4.9;;
17949;SDS011;9100;48.700;9.316;2023-05-02T00:19:46;5.5;;;5;;
17949;SDS011;9100;48.700;9.316;2023-05-02T00:20:33;5.5;;;5;;
17949;SDS011;9100;48.700;9.316;2023-05-02T00:21:33;5.5;;;5;;
17949;SDS011;9100;48.700;9.316;2023-05-02T00:22:33;5.5;;;5;;
17949;SDS011;9100;48.700;9.316;2023-05-02T00:23:33;5.5;;;5;;
17949;SDS011;9100;48.700;9.316;2023-05-02T00:24:33;5.5;;;5;;
17949;SDS011;9100;48.700;9.316;2023-05-02T00:24:46;5.9;;;5.4;;
17949;SDS011;9100;48.700;9.316;2023-05-02T00:25:33;5.9;;;5.4;;
17949;SDS011;9100;48.700;9.316;2023-05-02T00:26:33;5.9;;;5.4;;
17949;SDS011;9100;48.700;9.316;2023-05-02T00:27:33;5.9;;;5.4;;
17949;SDS011;9100;48.700;9.316;2023-05-02T00:28:33;5.9;;;5.4;;
17949;SDS011;9100;48.700;9.316;2023-05-02T00:29:33;5.9;;;5.4;;
17949;SDS011;9100;48.700;9.316;2023-05-02T00:29:46;8.8;;;6.5;;
17949;SDS011;9100;48.700;9.316;2023-05-02T00:30:33;8.8;;;6.5;;
17949;SDS011;9100;48.700;9.316;2023-05-02T00:31:33;8.8;;;6.5;;
17949;SDS011;9100;48.700;9.316;2023-05-02T00:32:33;8.8;;;6.5;;
17949;SDS011;9100;48.700;9.316;2023-05-02T00:33:33;8.8;;;6.5;;
17949;SDS011;9100;48.700;9.316;2023-05-02T00:34:33;8.8;;;6.5;;
17949;SDS011;9100;48.700;9.316;2023-05-02T00:34:46;6.7;;;5.5;;
17949;SDS011;9100;48.700;9.316;2023-05-02T00:35:33;6.7;;;5.5;;
17949;SDS011;9100;48.700;9.316;2023-05-02T00:36:33;6.7;;;5.5;;
17949;SDS011;9100;48.700;9.316;2023-05-02T00:37:33;6.7;;;5.5;;
17949;SDS011;9100;48.700;9.316;2023-05-02T00:38:33;6.7;;;5.5;;
17949;SDS011;9100;48.700;9.316;2023-05-02T00:39:33;6.7;;;5.5;;
17949;SDS011;9100;48.700;9.316;2023-05-02T00:39:46;8.4;;;5.5;;
17949;SDS011;9100;48.700;9.316;2023-05-02T00:40:42;8.4;;;5.5;;
17949;SDS011;9100;48.700;9.316;2023-05-02T00:41:33;8.4;;;5.5;;
17949;SDS011;9100;48.700;9.316;2023-05-02T00:42:33;8.4;;;5.5;;
17949;SDS011;9100;48.700;9.316;2023-05-02T00:43:33;8.4;;;5.5;;
17949;SDS011;9100;48.700;9.316;2023-05-02T00:44:33;8.4;;;5.5;;
17949;SDS011;9100;48.700;9.316;2023-05-02T00:44:46;5.5;;;5;;
17949;SDS011;9100;48.700;9.316;2023-05-02T00:45:33;5.5;;;5;;
17949;SDS011;9100;48.700;9.316;2023-05-02T00:46:33;5.5;;;5;;
17949;SDS011;9100;48.700;9.316;2023-05-02T00:47:33;5.5;;;5;;
17949;SDS011;9100;48.700;9.316;2023-05-02T00:48:33;5.5;;;5;;
17949;SDS011;9100;48.700;9.316;2023-05-02T00:49:33;5.5;;;5;;
17949;SDS011;9100;48.700;9.316;2023-05-02T00:49:46;5.1;;;4.6;;
17949;SDS011;9100;48.700;9.316;2023-05-02T00:50:34;5.1;;;4.6;;
17949;SDS011;9100;48.700;9.316;2023-05-02T00:51:33;5.1;;;4.6;;
17949;SDS011;9100;48.700;9.316;2023-05-02T00:52:33;5.1;;;4.6;;
17949;SDS011;9100;48.700;9.316;2023-05-02T00:53:34;5.1;;;4.6;;
17949;SDS011;9100;48.700;9.316;2023-05-02T00:54:33;5.1;;;4.6;;
17949;SDS011;9100;48.700;9.316;2023-05-02T00:54:46;4.7;;;4.3;;
17949;SDS011;9100;48.700;9.316;2023-05-02T00:55:33;4.7;;;4.3;;
17949;SDS011;9100;48.700;9.316;2023-05-02T00:56:33;4.7;;;4.3;;
17949;SDS011;9100;48.700;9.316;2023-05-02T00:57:33;4.7;;;4.3;;
17949;SDS011;9100;48.700;9.316;2023-05-02T00:58:33;4.7;;;4.3;;
17949;SDS011;9100;48.700;9.316;2023-05-02T00:59:33;4.7;;;4.3;;
17949;SDS011;9100;48.700;9.316;2023-05-02T00:59:46;5.1;;;4.7;;
17949;SDS011;9100;48.700;9.316;2023-05-02T01:00:35;5.1;;;4.7;;
17949;SDS011;9100;48.700;9.316;2023-05-02T01:01:35;5.1;;;4.7;;
17949;SDS011;9100;48.700;9.316;2023-05-02T01:02:37;5.1;;;4.7;;
17949;SDS011;9100;48.700;9.316;2023-05-02T01:03:35;5.1;;;4.7;;
17949;SDS011;9100;48.700;9.316;2023-05-02T01:04:36;5.1;;;4.7;;
17949;SDS011;9100;48.700;9.316;2023-05-02T01:04:49;4.2;;;3.9;;
17949;SDS011;9100;48.700;9.316;2023-05-02T01:05:36;4.2;;;3.9;;
17949;SDS011;9100;48.700;9.316;2023-05-02T01:06:35;4.2;;;3.9;;
17949;SDS011;9100;48.700;9.316;2023-05-02T01:07:37;4.2;;;3.9;;
17949;SDS011;9100;48.700;9.316;2023-05-02T01:08:33;4.2;;;3.9;;
17949;SDS011;9100;48.700;9.316;2023-05-02T01:09:36;4.2;;;3.9;;
17949;SDS011;9100;48.700;9.316;2023-05-02T01:09:50;4.4;;;4.1;;
17949;SDS011;9100;48.700;9.316;2023-05-02T01:10:37;4.4;;;4.1;;
17949;SDS011;9100;48.700;9.316;2023-05-02T01:11:34;4.4;;;4.1;;
17949;SDS011;9100;48.700;9.316;2023-05-02T01:12:35;4.4;;;4.1;;
17949;SDS011;9100;48.700;9.316;2023-05-02T01:13:33;4.4;;;4.1;;
17949;SDS011;9100;48.700;9.316;2023-05-02T01:14:33;4.4;;;4.1;;
17949;SDS011;9100;48.700;9.316;2023-05-02T01:14:48;3.9;;;3.6;;
17949;SDS011;9100;48.700;9.316;2023-05-02T01:15:33;3.9;;;3.6;;
17949;SDS011;9100;48.700;9.316;2023-05-02T01:16:33;3.9;;;3.6;;
17949;SDS011;9100;48.700;9.316;2023-05-02T01:17:33;3.9;;;3.6;;
17949;SDS011;9100;48.700;9.316;2023-05-02T01:18:34;3.9;;;3.6;;
17949;SDS011;9100;48.700;9.316;2023-05-02T01:19:34;3.9;;;3.6;;
17949;SDS011;9100;48.700;9.316;2023-05-02T01:19:55;4.1;;;3.8;;
17949;SDS011;9100;48.700;9.316;2023-05-02T01:20:34;4.1;;;3.8;;
17949;SDS011;9100;48.700;9.316;2023-05-02T01:21:33;4.1;;;3.8;;
17949;SDS011;9100;48.700;9.316;2023-05-02T01:22:33;4.1;;;3.8;;
17949;SDS011;9100;48.700;9.316;2023-05-02T01:23:36;4.1;;;3.8;;
17949;SDS011;9100;48.700;9.316;2023-05-02T01:24:35;4.1;;;3.8;;
17949;SDS011;9100;48.700;9.316;2023-05-02T01:24:48;4.2;;;3.9;;
17949;SDS011;9100;48.700;9.316;2023-05-02T01:25:35;4.2;;;3.9;;
17949;SDS011;9100;48.700;9.316;2023-05-02T01:26:34;4.2;;;3.9;;
17949;SDS011;9100;48.700;9.316;2023-05-02T01:27:35;4.2;;;3.9;;
17949;SDS011;9100;48.700;9.316;2023-05-02T01:28:35;4.2;;;3.9;;
17949;SDS011;9100;48.700;9.316;2023-05-02T01:29:33;4.2;;;3.9;;
17949;SDS011;9100;48.700;9.316;2023-05-02T01:29:46;4.8;;;4.4;;
17949;SDS011;9100;48.700;9.316;2023-05-02T01:30:33;4.8;;;4.4;;
17949;SDS011;9100;48.700;9.316;2023-05-02T01:31:33;4.8;;;4.4;;
17949;SDS011;9100;48.700;9.316;2023-05-02T01:32:33;4.8;;;4.4;;
17949;SDS011;9100;48.700;9.316;2023-05-02T01:33:33;4.8;;;4.4;;
17949;SDS011;9100;48.700;9.316;2023-05-02T01:34:33;4.8;;;4.4;;
17949;SDS011;9100;48.700;9.316;2023-05-02T01:34:46;5.8;;;4.7;;
17949;SDS011;9100;48.700;9.316;2023-05-02T01:35:33;5.8;;;4.7;;
17949;SDS011;9100;48.700;9.316;2023-05-02T01:36:33;5.8;;;4.7;;
17949;SDS011;9100;48.700;9.316;2023-05-02T01:37:33;5.8;;;4.7;;
17949;SDS011;9100;48.700;9.316;2023-05-02T01:38:33;5.8;;;4.7;;
17949;SDS011;9100;48.700;9.316;2023-05-02T01:39:33;5.8;;;4.7;;
17949;SDS011;9100;48.700;9.316;2023-05-02T01:39:46;5;;;4.6;;
17949;SDS011;9100;48.700;9.316;2023-05-02T01:40:33;5;;;4.6;;
17949;SDS011;9100;48.700;9.316;2023-05-02T01:41:33;5;;;4.6;;
17949;SDS011;9100;48.700;9.316;2023-05-02T01:42:33;5;;;4.6;;
17949;SDS011;9100;48.700;9.316;2023-05-02T01:43:33;5;;;4.6;;
17949;SDS011;9100;48.700;9.316;2023-05-02T01:44:33;5;;;4.6;;
17949;SDS011;9100;48.700;9.316;2023-05-02T01:44:46;4.1;;;3.7;;
17949;SDS011;9100;48.700;9.316;2023-05-02T01:45:33;4.1;;;3.7;;
17949;SDS011;9100;48.700;9.316;2023-05-02T01:46:33;4.1;;;3.7;;
17949;SDS011;9100;48.700;9.316;2023-05-02T01:47:34;4.1;;;3.7;;
17949;SDS011;9100;48.700;9.316;2023-05-02T01:48:33;4.1;;;3.7;;
17949;SDS011;9100;48.700;9.316;2023-05-02T01:49:33;4.1;;;3.7;;
17949;SDS011;9100;48.700;9.316;2023-05-02T01:49:46;4.6;;;4.3;;
17949;SDS011;9100;48.700;9.316;2023-05-02T01:50:33;4.6;;;4.3;;
17949;SDS011;9100;48.700;9.316;2023-05-02T01:51:34;4.6;;;4.3;;
17949;SDS011;9100;48.700;9.316;2023-05-02T01:52:33;4.6;;;4.3;;
17949;SDS011;9100;48.700;9.316;2023-05-02T01:53:33;4.6;;;4.3;;
17949;SDS011;9100;48.700;9.316;2023-05-02T01:54:33;4.6;;;4.3;;
17949;SDS011;9100;48.700;9.316;2023-05-02T01:54:46;5.4;;;4.2;;
17949;SDS011;9100;48.700;9.316;2023-05-02T01:55:33;5.4;;;4.2;;
17949;SDS011;9100;48.700;9.316;2023-05-02T01:56:34;5.4;;;4.2;;
17949;SDS011;9100;48.700;9.316;2023-05-02T01:57:33;5.4;;;4.2;;
17949;SDS011;9100;48.700;9.316;2023-05-02T01:58:33;5.4;;;4.2;;
17949;SDS011;9100;48.700;9.316;2023-05-02T01:59:33;5.4;;;4.2;;
17949;SDS011;9100;48.700;9.316;2023-05-02T01:59:46;4.4;;;4;;
17949;SDS011;9100;48.700;9.316;2023-05-02T02:00:33;4.4;;;4;;
17949;SDS011;9100;48.700;9.316;2023-05-02T02:01:33;4.4;;;4;;
17949;SDS011;9100;48.700;9.316;2023-05-02T02:02:33;4.4;;;4;;
17949;SDS011;9100;48.700;9.316;2023-05-02T02:03:33;4.4;;;4;;
17949;SDS011;9100;48.700;9.316;2023-05-02T02:04:33;4.4;;;4;;
17949;SDS011;9100;48.700;9.316;2023-05-02T02:04:46;4.7;;;4.4;;
17949;SDS011;9100;48.700;9.316;2023-05-02T02:05:33;4.7;;;4.4;;
17949;SDS011;9100;48.700;9.316;2023-05-02T02:06:33;4.7;;;4.4;;
17949;SDS011;9100;48.700;9.316;2023-05-02T02:07:33;4.7;;;4.4;;
17949;SDS011;9100;48.700;9.316;2023-05-02T02:08:33;4.7;;;4.4;;
17949;SDS011;9100;48.700;9.316;2023-05-02T02:09:33;4.7;;;4.4;;
17949;SDS011;9100;48.700;9.316;2023-05-02T02:09:46;4.8;;;4.3;;
17949;SDS011;9100;48.700;9.316;2023-05-02T02:10:34;4.8;;;4.3;;
17949;SDS011;9100;48.700;9.316;2023-05-02T02:11:34;4.8;;;4.3;;
17949;SDS011;9100;48.700;9.316;2023-05-02T02:12:34;4.8;;;4.3;;
17949;SDS011;9100;48.700;9.316;2023-05-02T02:13:34;4.8;;;4.3;;
17949;SDS011;9100;48.700;9.316;2023-05-02T02:14:34;4.8;;;4.3;;
17949;SDS011;9100;48.700;9.316;2023-05-02T02:14:47;4.5;;;4.1;;
17949;SDS011;9100;48.700;9.316;2023-05-02T02:15:33;4.5;;;4.1;;
17949;SDS011;9100;48.700;9.316;2023-05-02T02:16:34;4.5;;;4.1;;
17949;SDS011;9100;48.700;9.316;2023-05-02T02:17:35;4.5;;;4.1;;
17949;SDS011;9100;48.700;9.316;2023-05-02T02:18:34;4.5;;;4.1;;
17949;SDS011;9100;48.700;9.316;2023-05-02T02:19:33;4.5;;;4.1;;
17949;SDS011;9100;48.700;9.316;2023-05-02T02:19:46;4.4;;;4.1;;
17949;SDS011;9100;48.700;9.316;2023-05-02T02:20:33;4.4;;;4.1;;
17949;SDS011;9100;48.700;9.316;2023-05-02T02:21:33;4.4;;;4.1;;
17949;SDS011;9100;48.700;9.316;2023-05-02T02:22:33;4.4;;;4.1;;
17949;SDS011;9100;48.700;9.316;2023-05-02T02:23:33;4.4;;;4.1;;
17949;SDS011;9100;48.700;9.316;2023-05-02T02:24:33;4.4;;;4.1;;
17949;SDS011;9100;48.700;9.316;2023-05-02T02:24:46;4.2;;;3.9;;
17949;SDS011;9100;48.700;9.316;2023-05-02T02:25:33;4.2;;;3.9;;
17949;SDS011;9100;48.700;9.316;2023-05-02T02:26:33;4.2;;;3.9;;
17949;SDS011;9100;48.700;9.316;2023-05-02T02:27:33;4.2;;;3.9;;
17949;SDS011;9100;48.700;9.316;2023-05-02T02:28:33;4.2;;;3.9;;
17949;SDS011;9100;48.700;9.316;2023-05-02T02:29:33;4.2;;;3.9;;
17949;SDS011;9100;48.700;9.316;2023-05-02T02:29:46;4.5;;;4.2;;
17949;SDS011;9100;48.700;9.316;2023-05-02T02:30:33;4.5;;;4.2;;
17949;SDS011;9100;48.700;9.316;2023-05-02T02:31:33;4.5;;;4.2;;
17949;SDS011;9100;48.700;9.316;2023-05-02T02:32:33;4.5;;;4.2;;
17949;SDS011;9100;48.700;9.316;2023-05-02T02:33:33;4.5;;;4.2;;
17949;SDS011;9100;48.700;9.316;2023-05-02T02:34:33;4.5;;;4.2;;
17949;SDS011;9100;48.700;9.316;2023-05-02T02:34:46;4.7;;;4.2;;
17949;SDS011;9100;48.700;9.316;2023-05-02T02:35:35;4.7;;;4.2;;
17949;SDS011;9100;48.700;9.316;2023-05-02T02:36:34;4.7;;;4.2;;
17949;SDS011;9100;48.700;9.316;2023-05-02T02:37:34;4.7;;;4.2;;
17949;SDS011;9100;48.700;9.316;2023-05-02T02:38:35;4.7;;;4.2;;
17949;SDS011;9100;48.700;9.316;2023-05-02T02:39:36;4.7;;;4.2;;
17949;SDS011;9100;48.700;9.316;2023-05-02T02:39:50;4.5;;;4.2;;
17949;SDS011;9100;48.700;9.316;2023-05-02T02:40:33;4.5;;;4.2;;
17949;SDS011;9100;48.700;9.316;2023-05-02T02:41:35;4.5;;;4.2;;
17949;SDS011;9100;48.700;9.316;2023-05-02T02:42:35;4.5;;;4.2;;
17949;SDS011;9100;48.700;9.316;2023-05-02T02:43:35;4.5;;;4.2;;
17949;SDS011;9100;48.700;9.316;2023-05-02T02:44:34;4.5;;;4.2;;
17949;SDS011;9100;48.700;9.316;2023-05-02T02:44:50;4.4;;;4.1;;
17949;SDS011;9100;48.700;9.316;2023-05-02T02:45:34;4.4;;;4.1;;
17949;SDS011;9100;48.700;9.316;2023-05-02T02:46:33;4.4;;;4.1;;
17949;SDS011;9100;48.700;9.316;2023-05-02T02:47:35;4.4;;;4.1;;
17949;SDS011;9100;48.700;9.316;2023-05-02T02:48:34;4.4;;;4.1;;
17949;SDS011;9100;48.700;9.316;2023-05-02T02:49:35;4.4;;;4.1;;
17949;SDS011;9100;48.700;9.316;2023-05-02T02:49:47;4.5;;;4.2;;
17949;SDS011;9100;48.700;9.316;2023-05-02T02:50:35;4.5;;;4.2;;
17949;SDS011;9100;48.700;9.316;2023-05-02T02:51:37;4.5;;;4.2;;
17949;SDS011;9100;48.700;9.316;2023-05-02T02:52:36;4.5;;;4.2;;
17949;SDS011;9100;48.700;9.316;2023-05-02T02:53:36;4.5;;;4.2;;
17949;SDS011;9100;48.700;9.316;2023-05-02T02:54:34;4.5;;;4.2;;
17949;SDS011;9100;48.700;9.316;2023-05-02T02:54:49;5.8;;;4.4;;
17949;SDS011;9100;48.700;9.316;2023-05-02T02:55:35;5.8;;;4.4;;
17949;SDS011;9100;48.700;9.316;2023-05-02T02:56:36;5.8;;;4.4;;
17949;SDS011;9100;48.700;9.316;2023-05-02T02:57:35;5.8;;;4.4;;
17949;SDS011;9100;48.700;9.316;2023-05-02T02:58:38;5.8;;;4.4;;
17949;SDS011;9100;48.700;9.316;2023-05-02T02:59:34;5.8;;;4.4;;
17949;SDS011;9100;48.700;9.316;2023-05-02T02:59:48;6.3;;;4.5;;
17949;SDS011;9100;48.700;9.316;2023-05-02T03:00:33;6.3;;;4.5;;
17949;SDS011;9100;48.700;9.316;2023-05-02T03:01:33;6.3;;;4.5;;
17949;SDS011;9100;48.700;9.316;2023-05-02T03:02:33;6.3;;;4.5;;
17949;SDS011;9100;48.700;9.316;2023-05-02T03:03:33;6.3;;;4.5;;
17949;SDS011;9100;48.700;9.316;2023-05-02T03:04:33;6.3;;;4.5;;
17949;SDS011;9100;48.700;9.316;2023-05-02T03:04:46;4.8;;;4.5;;
17949;SDS011;9100;48.700;9.316;2023-05-02T03:05:33;4.8;;;4.5;;
17949;SDS011;9100;48.700;9.316;2023-05-02T03:06:33;4.8;;;4.5;;
17949;SDS011;9100;48.700;9.316;2023-05-02T03:07:33;4.8;;;4.5;;
17949;SDS011;9100;48.700;9.316;2023-05-02T03:08:41;4.8;;;4.5;;
17949;SDS011;9100;48.700;9.316;2023-05-02T03:09:41;4.8;;;4.5;;
17949;SDS011;9100;48.700;9.316;2023-05-02T03:09:46;5.7;;;5;;
17949;SDS011;9100;48.700;9.316;2023-05-02T03:10:33;5.7;;;5;;
17949;SDS011;9100;48.700;9.316;2023-05-02T03:11:33;5.7;;;5;;
17949;SDS011;9100;48.700;9.316;2023-05-02T03:12:33;5.7;;;5;;
17949;SDS011;9100;48.700;9.316;2023-05-02T03:13:33;5.7;;;5;;
17949;SDS011;9100;48.700;9.316;2023-05-02T03:14:33;5.7;;;5;;
17949;SDS011;9100;48.700;9.316;2023-05-02T03:14:46;5.5;;;5;;
17949;SDS011;9100;48.700;9.316;2023-05-02T03:16:33;5.5;;;5;;
17949;SDS011;9100;48.700;9.316;2023-05-02T03:16:38;5.5;;;5;;
17949;SDS011;9100;48.700;9.316;2023-05-02T03:17:33;5.5;;;5;;
17949;SDS011;9100;48.700;9.316;2023-05-02T03:18:33;5.5;;;5;;
17949;SDS011;9100;48.700;9.316;2023-05-02T03:19:34;5.5;;;5;;
17949;SDS011;9100;48.700;9.316;2023-05-02T03:19:46;5.4;;;5.1;;
17949;SDS011;9100;48.700;9.316;2023-05-02T03:20:33;5.4;;;5.1;;
17949;SDS011;9100;48.700;9.316;2023-05-02T03:21:33;5.4;;;5.1;;
17949;SDS011;9100;48.700;9.316;2023-05-02T03:22:33;5.4;;;5.1;;
17949;SDS011;9100;48.700;9.316;2023-05-02T03:23:33;5.4;;;5.1;;
17949;SDS011;9100;48.700;9.316;2023-05-02T03:24:33;5.4;;;5.1;;
17949;SDS011;9100;48.700;9.316;2023-05-02T03:24:46;5.4;;;5.1;;
17949;SDS011;9100;48.700;9.316;2023-05-02T03:25:33;5.4;;;5.1;;
17949;SDS011;9100;48.700;9.316;2023-05-02T03:26:33;5.4;;;5.1;;
17949;SDS011;9100;48.700;9.316;2023-05-02T03:27:33;5.4;;;5.1;;
17949;SDS011;9100;48.700;9.316;2023-05-02T03:28:33;5.4;;;5.1;;
17949;SDS011;9100;48.700;9.316;2023-05-02T03:29:33;5.4;;;5.1;;
17949;SDS011;9100;48.700;9.316;2023-05-02T03:29:46;6;;;5.5;;
17949;SDS011;9100;48.700;9.316;2023-05-02T03:30:33;6;;;5.5;;
17949;SDS011;9100;48.700;9.316;2023-05-02T03:31:33;6;;;5.5;;
17949;SDS011;9100;48.700;9.316;2023-05-02T03:32:33;6;;;5.5;;
17949;SDS011;9100;48.700;9.316;2023-05-02T03:33:33;6;;;5.5;;
17949;SDS011;9100;48.700;9.316;2023-05-02T03:34:33;6;;;5.5;;
17949;SDS011;9100;48.700;9.316;2023-05-02T03:34:46;5.6;;;5.2;;
17949;SDS011;9100;48.700;9.316;2023-05-02T03:35:33;5.6;;;5.2;;
17949;SDS011;9100;48.700;9.316;2023-05-02T03:36:33;5.6;;;5.2;;
17949;SDS011;9100;48.700;9.316;2023-05-02T03:37:33;5.6;;;5.2;;
17949;SDS011;9100;48.700;9.316;2023-05-02T03:38:33;5.6;;;5.2;;
17949;SDS011;9100;48.700;9.316;2023-05-02T03:39:33;5.6;;;5.2;;
17949;SDS011;9100;48.700;9.316;2023-05-02T03:39:46;6.4;;;4.8;;
17949;SDS011;9100;48.700;9.316;2023-05-02T03:40:33;6.4;;;4.8;;
17949;SDS011;9100;48.700;9.316;2023-05-02T03:41:33;6.4;;;4.8;;
17949;SDS011;9100;48.700;9.316;2023-05-02T03:42:33;6.4;;;4.8;;
17949;SDS011;9100;48.700;9.316;2023-05-02T03:43:33;6.4;;;4.8;;
17949;SDS011;9100;48.700;9.316;2023-05-02T03:44:33;6.4;;;4.8;;
17949;SDS011;9100;48.700;9.316;2023-05-02T03:44:46;6.3;;;5.7;;
17949;SDS011;9100;48.700;9.316;2023-05-02T03:45:33;6.3;;;5.7;;
17949;SDS011;9100;48.700;9.316;2023-05-02T03:46:35;6.3;;;5.7;;
17949;SDS011;9100;48.700;9.316;2023-05-02T03:47:33;6.3;;;5.7;;
17949;SDS011;9100;48.700;9.316;2023-05-02T03:48:34;6.3;;;5.7;;
17949;SDS011;9100;48.700;9.316;2023-05-02T03:49:33;6.3;;;5.7;;
17949;SDS011;9100;48.700;9.316;2023-05-02T03:49:46;6.4;;;5.9;;
17949;SDS011;9100;48.700;9.316;2023-05-02T03:50:33;6.4;;;5.9;;
17949;SDS011;9100;48.700;9.316;2023-05-02T03:51:33;6.4;;;5.9;;
17949;SDS011;9100;48.700;9.316;2023-05-02T03:52:33;6.4;;;5.9;;
17949;SDS011;9100;48.700;9.316;2023-05-02T03:53:33;6.4;;;5.9;;
17949;SDS011;9100;48.700;9.316;2023-05-02T03:54:33;6.4;;;5.9;;
17949;SDS011;9100;48.700;9.316;2023-05-02T03:54:46;5.7;;;5.3;;
17949;SDS011;9100;48.700;9.316;2023-05-02T03:55:37;5.7;;;5.3;;
17949;SDS011;9100;48.700;9.316;2023-05-02T03:56:33;5.7;;;5.3;;
17949;SDS011;9100;48.700;9.316;2023-05-02T03:57:33;5.7;;;5.3;;
17949;SDS011;9100;48.700;9.316;2023-05-02T03:58:33;5.7;;;5.3;;
17949;SDS011;9100;48.700;9.316;2023-05-02T03:59:33;5.7;;;5.3;;
17949;SDS011;9100;48.700;9.316;2023-05-02T03:59:47;6.4;;;5.8;;
17949;SDS011;9100;48.700;9.316;2023-05-02T04:00:33;6.4;;;5.8;;
17949;SDS011;9100;48.700;9.316;2023-05-02T04:01:33;6.4;;;5.8;;
17949;SDS011;9100;48.700;9.316;2023-05-02T04:02:33;6.4;;;5.8;;
17949;SDS011;9100;48.700;9.316;2023-05-02T04:03:33;6.4;;;5.8;;
17949;SDS011;9100;48.700;9.316;2023-05-02T04:04:33;6.4;;;5.8;;
17949;SDS011;9100;48.700;9.316;2023-05-02T04:04:46;6.5;;;5.7;;
17949;SDS011;9100;48.700;9.316;2023-05-02T04:05:33;6.5;;;5.7;;
17949;SDS011;9100;48.700;9.316;2023-05-02T04:06:33;6.5;;;5.7;;
17949;SDS011;9100;48.700;9.316;2023-05-02T04:07:33;6.5;;;5.7;;
17949;SDS011;9100;48.700;9.316;2023-05-02T04:08:33;6.5;;;5.7;;
17949;SDS011;9100;48.700;9.316;2023-05-02T04:09:33;6.5;;;5.7;;
17949;SDS011;9100;48.700;9.316;2023-05-02T04:09:46;7;;;5.9;;
17949;SDS011;9100;48.700;9.316;2023-05-02T04:10:33;7;;;5.9;;
17949;SDS011;9100;48.700;9.316;2023-05-02T04:11:33;7;;;5.9;;
17949;SDS011;9100;48.700;9.316;2023-05-02T04:12:33;7;;;5.9;;
17949;SDS011;9100;48.700;9.316;2023-05-02T04:13:33;7;;;5.9;;
17949;SDS011;9100;48.700;9.316;2023-05-02T04:14:33;7;;;5.9;;
17949;SDS011;9100;48.700;9.316;2023-05-02T04:14:46;6.6;;;6;;
17949;SDS011;9100;48.700;9.316;2023-05-02T04:15:33;6.6;;;6;;
17949;SDS011;9100;48.700;9.316;2023-05-02T04:16:33;6.6;;;6;;
17949;SDS011;9100;48.700;9.316;2023-05-02T04:17:33;6.6;;;6;;
17949;SDS011;9100;48.700;9.316;2023-05-02T04:18:33;6.6;;;6;;
17949;SDS011;9100;48.700;9.316;2023-05-02T04:19:33;6.6;;;6;;
17949;SDS011;9100;48.700;9.316;2023-05-02T04:19:46;6.3;;;5.8;;
17949;SDS011;9100;48.700;9.316;2023-05-02T04:20:33;6.3;;;5.8;;
17949;SDS011;9100;48.700;9.316;2023-05-02T04:21:35;6.3;;;5.8;;
17949;SDS011;9100;48.700;9.316;2023-05-02T04:22:33;6.3;;;5.8;;
17949;SDS011;9100;48.700;9.316;2023-05-02T04:23:33;6.3;;;5.8;;
17949;SDS011;9100;48.700;9.316;2023-05-02T04:24:33;6.3;;;5.8;;
17949;SDS011;9100;48.700;9.316;2023-05-02T04:24:46;6.8;;;6.3;;
17949;SDS011;9100;48.700;9.316;2023-05-02T04:25:33;6.8;;;6.3;;
17949;SDS011;9100;48.700;9.316;2023-05-02T04:26:33;6.8;;;6.3;;
17949;SDS011;9100;48.700;9.316;2023-05-02T04:27:33;6.8;;;6.3;;
17949;SDS011;9100;48.700;9.316;2023-05-02T04:28:33;6.8;;;6.3;;
17949;SDS011;9100;48.700;9.316;2023-05-02T04:29:33;6.8;;;6.3;;
17949;SDS011;9100;48.700;9.316;2023-05-02T04:29:46;6.3;;;5.8;;
17949;SDS011;9100;48.700;9.316;2023-05-02T04:30:33;6.3;;;5.8;;
17949;SDS011;9100;48.700;9.316;2023-05-02T04:31:34;6.3;;;5.8;;
17949;SDS011;9100;48.700;9.316;2023-05-02T04:32:33;6.3;;;5.8;;
17949;SDS011;9100;48.700;9.316;2023-05-02T04:33:33;6.3;;;5.8;;
17949;SDS011;9100;48.700;9.316;2023-05-02T04:34:33;6.3;;;5.8;;
17949;SDS011;9100;48.700;9.316;2023-05-02T04:34:46;6.7;;;6.2;;
17949;SDS011;9100;48.700;9.316;2023-05-02T04:35:33;6.7;;;6.2;;
17949;SDS011;9100;48.700;9.316;2023-05-02T04:36:33;6.7;;;6.2;;
17949;SDS011;9100;48.700;9.316;2023-05-02T04:37:33;6.7;;;6.2;;
17949;SDS011;9100;48.700;9.316;2023-05-02T04:38:33;6.7;;;6.2;;
17949;SDS011;9100;48.700;9.316;2023-05-02T04:39:33;6.7;;;6.2;;
17949;SDS011;9100;48.700;9.316;2023-05-02T04:39:46;6.1;;;5.6;;
17949;SDS011;9100;48.700;9.316;2023-05-02T04:40:33;6.1;;;5.6;;
17949;SDS011;9100;48.700;9.316;2023-05-02T04:41:33;6.1;;;5.6;;
17949;SDS011;9100;48.700;9.316;2023-05-02T04:42:33;6.1;;;5.6;;
17949;SDS011;9100;48.700;9.316;2023-05-02T04:43:33;6.1;;;5.6;;
17949;SDS011;9100;48.700;9.316;2023-05-02T04:44:35;6.1;;;5.6;;
17949;SDS011;9100;48.700;9.316;2023-05-02T04:44:47;9.2;;;5.9;;
17949;SDS011;9100;48.700;9.316;2023-05-02T04:45:33;9.2;;;5.9;;
17949;SDS011;9100;48.700;9.316;2023-05-02T04:46:33;9.2;;;5.9;;
17949;SDS011;9100;48.700;9.316;2023-05-02T04:47:33;9.2;;;5.9;;
17949;SDS011;9100;48.700;9.316;2023-05-02T04:48:33;9.2;;;5.9;;
17949;SDS011;9100;48.700;9.316;2023-05-02T04:49:33;9.2;;;5.9;;
17949;SDS011;9100;48.700;9.316;2023-05-02T04:49:46;6.2;;;5.7;;
17949;SDS011;9100;48.700;9.316;2023-05-02T04:50:33;6.2;;;5.7;;
17949;SDS011;9100;48.700;9.316;2023-05-02T04:51:33;6.2;;;5.7;;
17949;SDS011;9100;48.700;9.316;2023-05-02T04:52:34;6.2;;;5.7;;
17949;SDS011;9100;48.700;9.316;2023-05-02T04:53:34;6.2;;;5.7;;
17949;SDS011;9100;48.700;9.316;2023-05-02T04:54:33;6.2;;;5.7;;
17949;SDS011;9100;48.700;9.316;2023-05-02T04:54:46;6.5;;;5.3;;
17949;SDS011;9100;48.700;9.316;2023-05-02T04:55:33;6.5;;;5.3;;
17949;SDS011;9100;48.700;9.316;2023-05-02T04:56:33;6.5;;;5.3;;
17949;SDS011;9100;48.700;9.316;2023-05-02T04:57:33;6.5;;;5.3;;
17949;SDS011;9100;48.700;9.316;2023-05-02T04:58:33;6.5;;;5.3;;
17949;SDS011;9100;48.700;9.316;2023-05-02T04:59:33;6.5;;;5.3;;
17949;SDS011;9100;48.700;9.316;2023-05-02T04:59:46;5.5;;;5;;
17949;SDS011;9100;48.700;9.316;2023-05-02T05:00:33;5.5;;;5;;
17949;SDS011;9100;48.700;9.316;2023-05-02T05:01:33;5.5;;;5;;
17949;SDS011;9100;48.700;9.316;2023-05-02T05:02:33;5.5;;;5;;
17949;SDS011;9100;48.700;9.316;2023-05-02T05:03:33;5.5;;;5;;
17949;SDS011;9100;48.700;9.316;2023-05-02T05:04:33;5.5;;;5;;
17949;SDS011;9100;48.700;9.316;2023-05-02T05:04:46;5.6;;;5;;
17949;SDS011;9100;48.700;9.316;2023-05-02T05:05:33;5.6;;;5;;
17949;SDS011;9100;48.700;9.316;2023-05-02T05:06:33;5.6;;;5;;
17949;SDS011;9100;48.700;9.316;2023-05-02T05:07:33;5.6;;;5;;
17949;SDS011;9100;48.700;9.316;2023-05-02T05:08:33;5.6;;;5;;
17949;SDS011;9100;48.700;9.316;2023-05-02T05:09:33;5.6;;;5;;
17949;SDS011;9100;48.700;9.316;2023-05-02T05:09:46;6.1;;;5.6;;
17949;SDS011;9100;48.700;9.316;2023-05-02T05:10:33;6.1;;;5.6;;
17949;SDS011;9100;48.700;9.316;2023-05-02T05:11:33;6.1;;;5.6;;
17949;SDS011;9100;48.700;9.316;2023-05-02T05:12:33;6.1;;;5.6;;
17949;SDS011;9100;48.700;9.316;2023-05-02T05:13:33;6.1;;;5.6;;
17949;SDS011;9100;48.700;9.316;2023-05-02T05:14:33;6.1;;;5.6;;
17949;SDS011;9100;48.700;9.316;2023-05-02T05:14:46;6.6;;;6;;
17949;SDS011;9100;48.700;9.316;2023-05-02T05:15:33;6.6;;;6;;
17949;SDS011;9100;48.700;9.316;2023-05-02T05:16:33;6.6;;;6;;
17949;SDS011;9100;48.700;9.316;2023-05-02T05:17:33;6.6;;;6;;
17949;SDS011;9100;48.700;9.316;2023-05-02T05:18:34;6.6;;;6;;